Time;durP1;ratioP1;P1;durP2;ratioP2;P2;SDS_P1;SDS_P2;PMS_P1;PMS_P2;Temp;Humidity;BMP_temperature;BMP_pressure;BME280_temperature;BME280_humidity;BME280_pressure;Samples;Min_cycle;Max_cycle;Signal;HPM_P1;HPM_P2
2023/09/04 00:00:25;;;;;;;5.70;3.77;;;12.30;99.90;;;;;;5049758;28;20457;-52
2023/09/04 00:02:52;;;;;;;4.73;3.07;;;12.20;99.90;;;;;;5048916;28;20462;-52
2023/09/04 00:05:19;;;;;;;3.27;2.60;;;12.20;99.90;;;;;;5047361;28;21083;-51
2023/09/04 00:07:46;;;;;;;3.13;2.93;;;12.20;99.90;;;;;;5051799;28;20497;-52
2023/09/04 00:10:14;;;;;;;2.70;2.50;;;12.20;99.90;;;;;;5048794;28;20507;-52
2023/09/04 00:12:40;;;;;;;3.03;2.60;;;12.20;99.90;;;;;;5050535;28;20504;-51
2023/09/04 00:15:07;;;;;;;3.20;2.90;;;12.20;99.90;;;;;;5049505;28;20454;-52
2023/09/04 00:17:35;;;;;;;3.77;2.93;;;12.10;99.90;;;;;;5053065;28;20568;-52
2023/09/04 00:20:01;;;;;;;6.40;3.33;;;12.20;99.90;;;;;;5050998;28;20466;-51
2023/09/04 00:22:28;;;;;;;3.70;3.40;;;12.20;99.90;;;;;;5050181;28;20461;-52
2023/09/04 00:24:54;;;;;;;3.30;3.00;;;12.20;99.90;;;;;;5045846;28;20535;-52
2023/09/04 00:27:23;;;;;;;4.87;2.90;;;12.10;99.90;;;;;;5052738;28;20469;-53
2023/09/04 00:29:49;;;;;;;6.53;3.23;;;12.10;99.90;;;;;;5043350;28;20971;-52
2023/09/04 00:32:16;;;;;;;3.67;3.20;;;12.10;99.90;;;;;;5044519;28;20458;-53
2023/09/04 00:34:43;;;;;;;3.80;3.33;;;12.00;99.90;;;;;;5047454;28;20544;-52
2023/09/04 00:37:10;;;;;;;7.27;3.17;;;12.00;99.90;;;;;;5044768;28;20979;-52
2023/09/04 00:39:36;;;;;;;3.17;2.97;;;12.00;99.90;;;;;;5052210;28;20449;-52
2023/09/04 00:42:03;;;;;;;4.07;2.83;;;12.00;99.90;;;;;;5052285;28;20520;-52
2023/09/04 00:44:31;;;;;;;3.47;3.27;;;12.00;99.90;;;;;;5051042;28;20501;-53
2023/09/04 00:46:59;;;;;;;3.60;2.90;;;11.90;99.90;;;;;;5048291;28;20510;-53
2023/09/04 00:49:26;;;;;;;2.93;2.73;;;11.90;99.90;;;;;;5045081;28;20470;-52
2023/09/04 00:51:53;;;;;;;5.10;3.30;;;11.90;99.90;;;;;;5051949;28;20875;-52
2023/09/04 00:54:20;;;;;;;3.33;2.80;;;11.90;99.90;;;;;;5051173;28;20438;-52
2023/09/04 00:56:48;;;;;;;5.43;3.40;;;11.80;99.90;;;;;;5051451;28;20516;-52
2023/09/04 00:59:14;;;;;;;3.53;2.57;;;11.80;99.90;;;;;;5050746;28;20552;-52
2023/09/04 01:01:43;;;;;;;3.20;3.00;;;11.80;99.90;;;;;;5049272;28;20462;-52
2023/09/04 01:04:10;;;;;;;3.13;2.93;;;11.80;99.90;;;;;;5046728;28;20520;-52
2023/09/04 01:06:36;;;;;;;4.90;3.90;;;11.80;99.90;;;;;;5048396;28;20563;-53
2023/09/04 01:09:05;;;;;;;3.20;2.90;;;11.80;99.90;;;;;;5049617;28;20507;-53
2023/09/04 01:11:39;;;;;;;3.07;2.80;;;11.80;99.90;;;;;;5050097;28;20465;-51
2023/09/04 01:14:11;;;;;;;3.40;3.10;;;11.80;99.90;;;;;;5044829;28;20488;-53
2023/09/04 01:16:39;;;;;;;4.20;3.20;;;11.80;99.90;;;;;;5043617;28;20479;-53
2023/09/04 01:19:10;;;;;;;3.53;3.23;;;11.80;99.90;;;;;;5050135;28;20461;-51
2023/09/04 01:21:39;;;;;;;3.27;3.07;;;11.80;99.90;;;;;;5046258;28;20462;-53
2023/09/04 01:24:07;;;;;;;3.43;3.13;;;11.70;99.90;;;;;;5048005;28;20490;-53
2023/09/04 01:26:38;;;;;;;3.20;3.00;;;11.70;99.90;;;;;;5051232;28;20485;-52
2023/09/04 01:29:09;;;;;;;4.03;3.00;;;11.80;99.90;;;;;;5048810;28;20470;-51
2023/09/04 01:31:44;;;;;;;2.67;2.47;;;11.70;99.90;;;;;;5049902;28;20454;-53
2023/09/04 01:34:15;;;;;;;5.13;3.20;;;11.70;99.90;;;;;;5042065;28;20543;-52
2023/09/04 01:36:45;;;;;;;3.50;3.20;;;11.70;99.90;;;;;;5044494;28;20513;-51
2023/09/04 01:39:12;;;;;;;4.17;2.97;;;11.70;99.90;;;;;;5047335;28;20534;-52
2023/09/04 01:41:39;;;;;;;8.00;3.43;;;11.60;99.90;;;;;;5041444;28;20494;-53
2023/09/04 01:44:06;;;;;;;4.10;3.70;;;11.60;99.90;;;;;;5046085;28;20459;-53
2023/09/04 01:46:33;;;;;;;3.20;3.00;;;11.60;99.90;;;;;;5038296;28;20502;-52
2023/09/04 01:48:59;;;;;;;3.77;3.30;;;11.60;99.90;;;;;;5050271;28;20450;-52
2023/09/04 01:51:26;;;;;;;6.07;3.63;;;11.60;99.90;;;;;;5050523;28;20543;-52
2023/09/04 01:53:54;;;;;;;5.47;4.00;;;11.50;99.90;;;;;;5049568;28;20473;-52
2023/09/04 01:58:47;;;;;;;6.30;4.03;;;11.50;99.90;;;;;;5040628;28;20572;-52
2023/09/04 02:01:14;;;;;;;3.73;3.10;;;11.50;99.90;;;;;;5045947;28;20462;-52
2023/09/04 02:03:40;;;;;;;3.83;3.53;;;11.50;99.90;;;;;;5049024;28;20966;-52
2023/09/04 02:06:07;;;;;;;3.73;3.50;;;11.50;99.90;;;;;;5042992;28;20481;-51
2023/09/04 02:08:34;;;;;;;4.60;3.50;;;11.50;99.90;;;;;;5046503;28;20477;-51
2023/09/04 02:11:02;;;;;;;4.10;3.80;;;11.50;99.90;;;;;;5047976;28;20501;-51
2023/09/04 02:13:28;;;;;;;3.90;2.80;;;11.50;99.90;;;;;;5049525;28;20446;-52
2023/09/04 02:15:55;;;;;;;4.60;3.30;;;11.40;99.90;;;;;;5049304;28;20481;-53
2023/09/04 02:18:21;;;;;;;4.07;3.67;;;11.40;99.90;;;;;;5051312;28;20539;-51
2023/09/04 02:20:48;;;;;;;4.13;3.63;;;11.40;99.90;;;;;;5051342;28;20470;-51
2023/09/04 02:23:14;;;;;;;5.90;3.40;;;11.40;99.90;;;;;;5054636;28;20503;-52
2023/09/04 02:25:41;;;;;;;4.37;3.50;;;11.40;99.90;;;;;;5053237;28;20473;-53
2023/09/04 02:28:09;;;;;;;9.87;4.40;;;11.40;99.90;;;;;;5053633;28;20454;-51
2023/09/04 02:30:38;;;;;;;4.13;3.30;;;11.40;99.90;;;;;;5045804;28;20520;-52
2023/09/04 02:33:05;;;;;;;5.03;3.40;;;11.40;99.90;;;;;;5045274;28;20463;-52
2023/09/04 02:35:32;;;;;;;5.43;3.53;;;11.40;99.90;;;;;;5049770;28;20485;-52
2023/09/04 02:37:58;;;;;;;6.17;3.80;;;11.40;99.90;;;;;;5054495;28;20568;-53
2023/09/04 02:40:25;;;;;;;5.20;3.83;;;11.40;99.90;;;;;;5053780;28;20535;-52
2023/09/04 02:42:52;;;;;;;7.20;3.87;;;11.30;99.90;;;;;;5040667;28;20501;-53
2023/09/04 02:45:19;;;;;;;5.07;3.47;;;11.30;99.90;;;;;;5048192;28;20497;-53
2023/09/04 02:47:46;;;;;;;4.43;3.70;;;11.30;99.90;;;;;;5041319;28;20535;-52
2023/09/04 02:50:13;;;;;;;4.50;4.10;;;11.40;99.90;;;;;;5049087;28;20458;-52
2023/09/04 02:52:39;;;;;;;4.57;3.73;;;11.30;99.90;;;;;;5052688;28;20454;-52
2023/09/04 02:55:07;;;;;;;5.70;3.77;;;11.30;99.90;;;;;;5053518;28;20453;-52
2023/09/04 02:57:33;;;;;;;9.23;5.20;;;11.30;99.90;;;;;;5048262;28;20983;-52
2023/09/04 03:00:00;;;;;;;7.30;4.53;;;11.30;99.90;;;;;;5045942;28;20616;-51
2023/09/04 03:02:28;;;;;;;8.30;5.40;;;11.30;99.90;;;;;;5048020;28;20458;-53
2023/09/04 03:04:55;;;;;;;10.17;5.60;;;11.30;99.90;;;;;;5051936;28;20563;-52
2023/09/04 03:07:22;;;;;;;8.30;5.10;;;11.30;99.90;;;;;;5050012;28;20496;-52
2023/09/04 03:09:55;;;;;;;12.43;5.57;;;11.30;99.90;;;;;;5051573;28;20511;-52
2023/09/04 03:12:21;;;;;;;10.37;5.57;;;11.30;99.90;;;;;;5047294;28;20453;-52
2023/09/04 03:14:52;;;;;;;9.10;5.17;;;11.20;99.90;;;;;;5052823;28;20457;-52
2023/09/04 03:17:19;;;;;;;8.87;5.10;;;11.30;99.90;;;;;;5043747;28;20572;-52
2023/09/04 03:19:47;;;;;;;11.77;5.50;;;11.30;99.90;;;;;;5053285;28;20975;-52
2023/09/04 03:22:13;;;;;;;7.73;5.17;;;11.30;99.90;;;;;;5049201;28;20458;-52
2023/09/04 03:24:40;;;;;;;11.07;7.33;;;11.30;99.90;;;;;;5052671;28;20500;-52
2023/09/04 03:27:06;;;;;;;8.17;5.80;;;11.30;99.90;;;;;;5054038;28;20477;-51
2023/09/04 03:29:33;;;;;;;8.57;5.30;;;11.30;99.90;;;;;;5053298;28;20442;-51
2023/09/04 03:31:59;;;;;;;7.20;5.47;;;11.20;99.90;;;;;;5048140;28;20513;-54
2023/09/04 03:34:26;;;;;;;9.43;6.10;;;11.20;99.90;;;;;;5047409;28;20458;-54
2023/09/04 03:36:54;;;;;;;12.53;6.70;;;11.20;99.90;;;;;;5050674;28;20509;-53
2023/09/04 03:39:20;;;;;;;10.90;6.07;;;11.20;99.90;;;;;;5049051;28;20552;-53
2023/09/04 03:41:47;;;;;;;12.10;7.03;;;11.10;99.90;;;;;;5052821;28;20462;-52
2023/09/04 03:44:14;;;;;;;9.80;6.27;;;11.10;99.90;;;;;;5050092;28;20876;-55
2023/09/04 03:46:40;;;;;;;8.30;6.37;;;11.10;99.90;;;;;;5046773;28;20512;-53
2023/09/04 03:49:07;;;;;;;11.90;6.10;;;11.10;99.90;;;;;;5050775;28;21001;-53
2023/09/04 03:51:34;;;;;;;10.50;6.60;;;11.10;99.90;;;;;;5050443;28;20452;-53
2023/09/04 03:54:02;;;;;;;10.77;6.30;;;11.00;99.90;;;;;;5043267;28;20502;-55
2023/09/04 03:56:29;;;;;;;9.70;6.30;;;11.10;99.90;;;;;;5051285;28;20494;-53
2023/09/04 03:58:56;;;;;;;9.10;5.97;;;11.10;99.90;;;;;;5049276;28;20519;-52
2023/09/04 04:01:23;;;;;;;8.87;5.60;;;11.10;99.90;;;;;;5049176;28;20462;-51
2023/09/04 04:03:50;;;;;;;12.80;6.10;;;11.10;99.90;;;;;;5045562;28;20458;-51
2023/09/04 04:06:17;;;;;;;7.43;5.63;;;11.10;99.90;;;;;;5047168;28;20506;-51
2023/09/04 04:08:45;;;;;;;10.00;5.87;;;11.10;99.90;;;;;;5043625;28;20454;-52
2023/09/04 04:11:13;;;;;;;10.23;5.70;;;11.20;99.90;;;;;;5052707;28;20489;-52
2023/09/04 04:13:40;;;;;;;7.40;5.53;;;11.10;99.90;;;;;;5052361;28;20951;-53
2023/09/04 04:16:06;;;;;;;8.83;5.27;;;11.10;99.90;;;;;;5051510;28;20531;-52
2023/09/04 04:18:33;;;;;;;9.37;5.43;;;11.10;99.90;;;;;;5047828;28;20513;-52
2023/09/04 04:20:59;;;;;;;12.13;6.60;;;11.10;99.90;;;;;;5059557;28;20449;-53
2023/09/04 04:23:26;;;;;;;12.37;6.17;;;11.20;99.90;;;;;;5049712;28;20880;-51
2023/09/04 04:25:53;;;;;;;8.80;5.73;;;11.20;99.90;;;;;;5047232;28;20494;-53
2023/09/04 04:28:22;;;;;;;10.40;6.40;;;11.20;99.90;;;;;;5046583;28;20499;-53
2023/09/04 04:30:49;;;;;;;11.50;6.87;;;11.10;99.90;;;;;;5041910;28;20551;-53
2023/09/04 04:33:16;;;;;;;11.13;5.13;;;11.10;99.90;;;;;;5045949;28;20527;-52
2023/09/04 04:35:43;;;;;;;10.03;5.47;;;11.10;99.90;;;;;;5047136;28;20482;-53
2023/09/04 04:38:10;;;;;;;11.23;6.03;;;11.10;99.90;;;;;;5050176;28;20971;-52
2023/09/04 04:40:37;;;;;;;10.53;5.60;;;11.10;99.90;;;;;;5049763;28;20486;-52
2023/09/04 04:43:04;;;;;;;8.57;5.70;;;11.10;99.90;;;;;;5035528;28;20489;-52
2023/09/04 04:45:32;;;;;;;8.40;5.43;;;11.20;99.90;;;;;;5042442;28;20821;-53
2023/09/04 04:48:00;;;;;;;9.27;6.20;;;11.20;99.90;;;;;;5048985;28;20458;-52
2023/09/04 04:50:26;;;;;;;11.07;6.30;;;11.20;99.90;;;;;;5049535;28;20496;-52
2023/09/04 04:52:53;;;;;;;6.70;5.57;;;11.20;99.90;;;;;;5051669;28;20454;-54
2023/09/04 04:55:19;;;;;;;9.43;5.27;;;11.20;99.90;;;;;;5049491;28;20457;-52
2023/09/04 04:57:46;;;;;;;10.20;6.10;;;11.20;99.90;;;;;;5048448;28;20512;-52
2023/09/04 05:00:13;;;;;;;9.67;4.97;;;11.20;99.90;;;;;;5045116;28;20462;-51
2023/09/04 05:02:42;;;;;;;6.63;5.03;;;11.30;99.90;;;;;;5042096;28;20458;-51
2023/09/04 05:05:10;;;;;;;9.17;5.50;;;11.30;99.90;;;;;;5044205;28;20464;-51
2023/09/04 05:07:37;;;;;;;7.10;5.57;;;11.20;99.90;;;;;;5047396;28;20564;-52
2023/09/04 05:10:04;;;;;;;7.13;4.77;;;11.20;99.90;;;;;;5047363;28;20450;-51
2023/09/04 05:12:30;;;;;;;10.40;5.80;;;11.20;99.90;;;;;;5051140;28;20492;-51
2023/09/04 05:14:57;;;;;;;9.63;5.60;;;11.30;99.90;;;;;;5041924;28;20484;-51
2023/09/04 05:17:23;;;;;;;8.80;5.43;;;11.30;99.90;;;;;;5049064;28;20517;-51
2023/09/04 05:19:51;;;;;;;11.90;5.50;;;11.30;99.90;;;;;;5047436;28;20490;-51
2023/09/04 05:22:18;;;;;;;8.40;4.57;;;11.30;99.90;;;;;;5047942;28;20987;-51
2023/09/04 05:24:45;;;;;;;4.73;4.13;;;11.40;99.90;;;;;;5045485;28;20493;-51
2023/09/04 05:27:11;;;;;;;9.40;5.17;;;11.50;99.90;;;;;;5039383;28;20501;-52
2023/09/04 05:29:38;;;;;;;6.03;4.33;;;11.50;99.90;;;;;;5046014;28;21012;-51
2023/09/04 05:32:05;;;;;;;7.40;4.83;;;11.50;99.90;;;;;;5050987;28;20469;-51
2023/09/04 05:34:32;;;;;;;5.10;4.60;;;11.60;99.90;;;;;;5050189;28;20465;-51
2023/09/04 05:37:00;;;;;;;5.53;4.20;;;11.60;99.90;;;;;;5048437;28;20482;-51
2023/09/04 05:39:27;;;;;;;5.20;4.30;;;11.70;99.90;;;;;;5048300;28;21064;-51
2023/09/04 05:41:53;;;;;;;6.87;4.77;;;11.80;99.90;;;;;;5050537;28;20466;-51
2023/09/04 05:44:20;;;;;;;4.20;3.53;;;11.80;99.90;;;;;;5043316;28;20463;-51
2023/09/04 05:46:46;;;;;;;6.73;4.20;;;11.90;99.90;;;;;;5046698;28;20555;-50
2023/09/04 05:49:13;;;;;;;7.60;3.70;;;11.90;99.90;;;;;;5050781;28;20462;-51
2023/09/04 05:51:39;;;;;;;8.23;5.03;;;12.00;99.90;;;;;;5047887;28;20457;-51
2023/09/04 05:54:07;;;;;;;5.87;4.50;;;12.10;99.90;;;;;;5045602;28;20507;-51
2023/09/04 05:56:34;;;;;;;8.33;6.07;;;12.20;99.90;;;;;;5053367;28;20493;-51
2023/09/04 05:59:01;;;;;;;6.73;5.40;;;12.30;99.90;;;;;;5054311;28;20486;-50
2023/09/04 06:01:27;;;;;;;12.63;6.00;;;12.50;99.90;;;;;;5047504;28;20469;-51
2023/09/04 06:03:54;;;;;;;8.00;5.33;;;12.60;99.90;;;;;;5053837;28;20997;-51
2023/09/04 06:06:21;;;;;;;11.67;6.30;;;12.70;99.90;;;;;;5052690;28;20485;-50
2023/09/04 06:08:47;;;;;;;14.73;5.93;;;12.80;99.90;;;;;;5052167;28;20488;-51
2023/09/04 06:11:16;;;;;;;9.93;6.10;;;12.90;99.90;;;;;;5052722;28;20952;-51
2023/09/04 06:13:42;;;;;;;7.97;6.40;;;13.10;99.90;;;;;;5050273;28;20535;-51
2023/09/04 06:16:09;;;;;;;9.73;6.83;;;13.20;99.90;;;;;;5053490;28;20477;-51
2023/09/04 06:18:36;;;;;;;9.67;5.90;;;13.30;99.90;;;;;;5055222;28;20531;-51
2023/09/04 06:21:02;;;;;;;8.50;7.03;;;13.40;99.90;;;;;;5054932;28;20449;-51
2023/09/04 06:23:29;;;;;;;10.80;6.70;;;13.50;99.90;;;;;;5047566;28;20462;-51
2023/09/04 06:25:56;;;;;;;6.43;5.60;;;13.60;99.90;;;;;;5049397;28;20535;-51
2023/09/04 06:28:24;;;;;;;8.00;6.23;;;13.60;99.90;;;;;;5051302;28;20507;-51
2023/09/04 06:30:50;;;;;;;9.70;6.47;;;13.70;99.90;;;;;;5048238;28;20507;-51
2023/09/04 06:33:17;;;;;;;9.17;6.20;;;13.70;99.90;;;;;;5052981;28;20947;-51
2023/09/04 06:35:43;;;;;;;11.90;6.00;;;13.80;99.90;;;;;;5044197;28;20538;-50
2023/09/04 06:38:12;;;;;;;14.07;6.80;;;13.90;99.90;;;;;;5045915;28;20458;-50
2023/09/04 06:40:39;;;;;;;9.83;6.30;;;14.00;99.90;;;;;;5048576;28;20511;-50
2023/09/04 06:43:05;;;;;;;10.20;6.37;;;14.10;99.90;;;;;;5048814;28;20458;-52
2023/09/04 06:45:35;;;;;;;9.23;6.10;;;14.20;99.90;;;;;;5050234;28;20527;-51
2023/09/04 06:48:02;;;;;;;11.53;6.17;;;14.30;99.90;;;;;;5037337;28;20549;-51
2023/09/04 06:50:28;;;;;;;11.03;6.30;;;14.40;99.90;;;;;;5047192;28;20454;-51
2023/09/04 06:52:55;;;;;;;10.37;6.30;;;14.50;99.90;;;;;;5053401;28;20862;-51
2023/09/04 06:55:21;;;;;;;11.10;7.63;;;14.70;99.90;;;;;;5039522;28;20983;-51
2023/09/04 06:57:48;;;;;;;10.63;7.20;;;14.80;99.90;;;;;;5046401;28;20469;-51
2023/09/04 07:00:16;;;;;;;11.90;6.27;;;14.90;99.90;;;;;;5050980;28;20519;-50
2023/09/04 07:02:44;;;;;;;14.67;6.47;;;15.00;99.90;;;;;;5052076;28;20477;-50
2023/09/04 07:05:11;;;;;;;14.03;7.00;;;15.10;99.90;;;;;;5048737;28;20457;-51
2023/09/04 07:07:38;;;;;;;13.20;6.30;;;15.20;99.90;;;;;;5040747;28;20515;-52
2023/09/04 07:10:05;;;;;;;21.00;6.93;;;15.30;99.90;;;;;;5048274;28;20489;-52
2023/09/04 07:12:34;;;;;;;11.30;5.50;;;15.40;99.90;;;;;;5051356;28;20449;-51
2023/09/04 07:15:01;;;;;;;11.97;6.43;;;15.40;99.90;;;;;;5051429;28;20518;-52
2023/09/04 07:17:27;;;;;;;11.23;5.90;;;15.60;99.90;;;;;;5053245;28;20454;-52
2023/09/04 07:19:55;;;;;;;10.93;5.33;;;15.70;99.90;;;;;;5048810;28;20482;-52
2023/09/04 07:22:22;;;;;;;19.53;5.07;;;15.80;99.90;;;;;;5051163;28;20562;-51
2023/09/04 07:24:48;;;;;;;6.80;5.03;;;15.90;99.90;;;;;;5049020;28;20884;-51
2023/09/04 07:27:15;;;;;;;5.97;4.60;;;16.00;99.90;;;;;;5052040;28;20895;-51
2023/09/04 07:29:42;;;;;;;14.17;5.93;;;16.10;99.90;;;;;;5037824;28;20450;-50
2023/09/04 07:32:08;;;;;;;7.17;5.10;;;16.20;20.40;;;;;;5048503;28;20466;-51
2023/09/04 07:34:35;;;;;;;11.13;4.50;;;16.30;25.20;;;;;;5049838;28;20461;-51
2023/09/04 07:37:03;;;;;;;5.60;5.13;;;16.40;27.60;;;;;;5045102;28;20513;-51
2023/09/04 07:39:29;;;;;;;7.90;5.00;;;16.60;35.70;;;;;;5052810;28;20999;-51
2023/09/04 07:41:56;;;;;;;6.53;4.73;;;16.80;46.90;;;;;;5047348;28;20462;-52
2023/09/04 07:44:23;;;;;;;19.03;4.80;;;16.90;49.30;;;;;;5049912;28;20966;-52
2023/09/04 07:46:50;;;;;;;8.73;5.10;;;17.00;61.50;;;;;;5047762;28;20568;-52
2023/09/04 07:49:16;;;;;;;7.50;4.10;;;17.10;67.10;;;;;;5049859;28;20461;-51
2023/09/04 07:51:43;;;;;;;4.50;4.10;;;17.20;78.50;;;;;;5053276;28;20539;-51
2023/09/04 07:54:12;;;;;;;4.47;3.80;;;17.30;87.90;;;;;;5051853;28;20465;-51
2023/09/04 07:56:38;;;;;;;9.87;4.47;;;17.40;99.90;;;;;;5042595;28;20485;-51
2023/09/04 07:59:05;;;;;;;5.47;4.03;;;17.40;99.90;;;;;;5049258;28;21048;-51
2023/09/04 08:01:32;;;;;;;13.33;4.60;;;17.60;99.90;;;;;;5050817;28;21627;-51
2023/09/04 08:04:01;;;;;;;6.87;4.20;;;17.80;99.90;;;;;;5048134;28;20466;-51
2023/09/04 08:06:28;;;;;;;6.33;3.93;;;18.00;99.90;;;;;;5047284;28;20482;-52
2023/09/04 08:08:54;;;;;;;7.27;4.10;;;18.10;99.90;;;;;;5047802;28;20523;-52
2023/09/04 08:11:22;;;;;;;8.80;3.87;;;18.30;99.90;;;;;;5048151;28;20486;-51
2023/09/04 08:13:49;;;;;;;4.60;3.77;;;18.40;99.90;;;;;;5045252;28;20466;-51
2023/09/04 08:16:15;;;;;;;3.83;3.43;;;18.60;99.90;;;;;;5049777;28;20482;-51
2023/09/04 08:18:42;;;;;;;10.97;3.93;;;18.60;99.90;;;;;;5046624;28;20462;-51
2023/09/04 08:21:09;;;;;;;4.93;3.50;;;18.70;99.90;;;;;;5050816;28;20963;-51
2023/09/04 08:23:35;;;;;;;3.80;3.33;;;18.70;99.90;;;;;;5046655;28;20865;-51
2023/09/04 08:26:03;;;;;;;4.13;3.40;;;18.80;99.90;;;;;;5049688;28;20473;-50
2023/09/04 08:28:31;;;;;;;15.13;4.17;;;18.80;99.90;;;;;;5048539;28;20458;-51
2023/09/04 08:30:58;;;;;;;8.70;3.50;;;19.00;99.90;;;;;;5050280;28;20529;-51
2023/09/04 08:33:25;;;;;;;4.87;3.87;;;19.10;99.90;;;;;;5048391;28;20458;-51
2023/09/04 08:35:51;;;;;;;4.77;3.57;;;19.20;99.90;;;;;;5046348;28;20535;-52
2023/09/04 08:38:18;;;;;;;4.00;3.00;;;19.30;99.90;;;;;;5045472;28;20450;-52
2023/09/04 08:40:45;;;;;;;4.43;3.10;;;19.30;99.90;;;;;;5049548;28;21036;-52
2023/09/04 08:43:12;;;;;;;5.80;3.33;;;19.40;99.90;;;;;;5047266;28;20465;-52
2023/09/04 08:45:42;;;;;;;6.70;2.87;;;19.50;99.90;;;;;;5048510;28;20477;-51
2023/09/04 08:48:09;;;;;;;6.43;3.70;;;19.70;99.90;;;;;;5047582;28;20504;-52
2023/09/04 08:50:37;;;;;;;13.20;3.97;;;19.80;99.90;;;;;;5050085;28;21013;-51
2023/09/04 08:53:04;;;;;;;5.50;3.50;;;19.80;99.90;;;;;;5048017;28;20450;-51
2023/09/04 08:55:33;;;;;;;3.97;3.20;;;19.90;99.90;;;;;;5049241;28;20572;-51
2023/09/04 08:58:01;;;;;;;5.30;2.87;;;20.10;99.90;;;;;;5047563;28;20465;-51
2023/09/04 09:00:28;;;;;;;5.90;3.50;;;20.20;99.90;;;;;;5043794;28;20473;-51
2023/09/04 09:02:58;;;;;;;6.20;3.07;;;20.30;79.50;;;;;;5045284;28;20466;-52
2023/09/04 09:05:26;;;;;;;6.30;3.67;;;20.40;95.40;;;;;;5047071;28;20458;-51
2023/09/04 09:07:54;;;;;;;5.63;3.07;;;20.50;34.70;;;;;;5046581;28;20461;-52
2023/09/04 09:10:21;;;;;;;5.10;3.23;;;20.70;35.40;;;;;;5048575;28;20528;-51
2023/09/04 09:12:48;;;;;;;3.60;3.30;;;20.90;70.30;;;;;;5047552;28;20527;-51
2023/09/04 09:15:17;;;;;;;5.27;3.53;;;21.00;91.20;;;;;;5044864;28;20515;-52
2023/09/04 09:17:53;;;;;;;3.87;2.67;;;21.10;89.10;;;;;;5041664;28;20472;-52
2023/09/04 09:20:35;;;;;;;4.53;3.37;;;21.30;84.00;;;;;;5045828;28;20477;-51
2023/09/04 09:23:04;;;;;;;8.70;3.80;;;21.90;97.20;;;;;;5048340;28;20471;-50
2023/09/04 09:25:31;;;;;;;4.40;3.93;;;22.20;99.90;;;;;;5049348;28;20486;-50
2023/09/04 09:28:03;;;;;;;4.10;3.43;;;21.90;99.90;;;;;;5042590;28;20523;-52
2023/09/04 09:30:33;;;;;;;5.00;4.30;;;22.00;99.90;;;;;;5048177;28;20519;-51
2023/09/04 09:33:00;;;;;;;6.90;3.40;;;21.90;99.90;;;;;;5048620;28;20457;-51
2023/09/04 09:35:32;;;;;;;3.87;2.90;;;21.80;99.90;;;;;;5045386;28;20953;-50
2023/09/04 09:38:00;;;;;;;3.03;2.70;;;22.00;99.90;;;;;;5050062;28;20454;-53
2023/09/04 09:40:26;;;;;;;4.83;4.40;;;22.00;99.90;;;;;;5050148;28;20485;-52
2023/09/04 09:42:53;;;;;;;10.60;4.20;;;22.00;99.90;;;;;;5041037;28;20454;-52
2023/09/04 09:45:20;;;;;;;8.00;3.60;;;22.20;99.90;;;;;;5043610;28;22321;-51
2023/09/04 09:47:50;;;;;;;3.47;3.13;;;22.20;99.90;;;;;;5050936;28;20492;-51
2023/09/04 09:50:17;;;;;;;6.63;4.10;;;22.20;99.90;;;;;;5050165;28;20484;-52
2023/09/04 09:52:58;;;;;;;8.30;4.40;;;22.70;99.90;;;;;;5043890;28;20465;-51
2023/09/04 09:55:25;;;;;;;9.93;3.90;;;23.10;99.90;;;;;;5046030;28;20462;-51
2023/09/04 09:57:53;;;;;;;7.07;3.83;;;23.10;99.90;;;;;;5048134;28;20469;-51
2023/09/04 10:00:20;;;;;;;6.80;3.50;;;23.10;99.90;;;;;;5047120;28;20490;-51
2023/09/04 10:02:47;;;;;;;5.97;3.77;;;23.00;99.90;;;;;;5048955;28;20457;-51
2023/09/04 10:05:13;;;;;;;3.93;3.60;;;23.30;99.90;;;;;;5046788;28;20461;-51
2023/09/04 10:07:41;;;;;;;6.40;2.73;;;22.90;99.90;;;;;;5043700;28;20493;-51
2023/09/04 10:10:11;;;;;;;7.53;3.70;;;23.30;99.90;;;;;;5043122;28;20533;-53
2023/09/04 10:12:42;;;;;;;4.53;2.90;;;23.40;99.90;;;;;;5044492;28;20461;-51
2023/09/04 10:15:11;;;;;;;6.03;3.20;;;23.80;99.90;;;;;;5048158;28;20462;-50
2023/09/04 10:17:46;;;;;;;8.27;3.23;;;23.70;99.90;;;;;;5047978;28;20539;-51
2023/09/04 10:20:14;;;;;;;4.53;2.77;;;25.00;99.90;;;;;;5045429;28;20470;-51
2023/09/04 10:22:45;;;;;;;12.10;3.87;;;25.70;99.90;;;;;;5047924;28;20453;-51
2023/09/04 10:25:21;;;;;;;7.10;3.20;;;26.00;99.90;;;;;;5045373;28;20454;-51
2023/09/04 10:27:51;;;;;;;4.43;2.70;;;26.30;99.90;;;;;;5044557;28;20457;-50
2023/09/04 10:30:19;;;;;;;7.43;2.63;;;26.90;99.90;;;;;;5046039;28;20799;-51
2023/09/04 10:32:46;;;;;;;12.23;3.63;;;27.10;99.90;;;;;;5045238;28;20519;-51
2023/09/04 10:35:13;;;;;;;2.60;2.40;;;27.50;99.90;;;;;;5038079;28;20967;-51
2023/09/04 10:37:40;;;;;;;14.83;2.67;;;27.80;99.90;;;;;;5044894;28;20453;-51
2023/09/04 10:40:10;;;;;;;4.23;2.60;;;28.00;99.90;;;;;;5047226;28;20565;-51
2023/09/04 10:42:41;;;;;;;2.47;2.30;;;27.90;99.90;;;;;;5043524;28;20459;-51
2023/09/04 10:45:14;;;;;;;7.50;3.23;;;28.30;99.90;;;;;;5038217;28;20524;-51
2023/09/04 10:47:46;;;;;;;2.57;2.37;;;27.10;99.90;;;;;;5049048;28;20449;-51
2023/09/04 10:50:29;;;;;;;5.30;2.70;;;26.90;99.90;;;;;;5054657;28;20434;-50
2023/09/04 10:52:56;;;;;;;5.37;2.90;;;27.80;99.90;;;;;;5053088;28;20442;-51
2023/09/04 10:55:24;;;;;;;2.73;1.93;;;28.30;99.90;;;;;;5046898;28;20824;-50
2023/09/04 10:57:56;;;;;;;2.47;2.27;;;28.70;99.90;;;;;;5050459;28;20527;-51
2023/09/04 11:00:28;;;;;;;4.60;2.67;;;29.20;99.90;;;;;;5047043;28;21047;-53
2023/09/04 11:02:55;;;;;;;4.50;2.57;;;28.60;99.90;;;;;;5054199;28;20476;-53
2023/09/04 11:05:21;;;;;;;2.37;2.17;;;27.90;99.90;;;;;;5054014;28;20437;-52
2023/09/04 11:07:48;;;;;;;2.27;2.10;;;26.80;99.90;;;;;;5053565;28;20491;-52
2023/09/04 11:10:35;;;;;;;6.33;3.07;;;26.00;99.90;;;;;;5047781;28;20461;-51
2023/09/04 11:13:04;;;;;;;7.50;2.53;;;26.00;99.90;;;;;;5044668;28;20461;-52
2023/09/04 11:15:33;;;;;;;3.10;2.30;;;25.60;99.90;;;;;;5045893;28;20435;-53
2023/09/04 11:18:01;;;;;;;3.73;2.07;;;24.90;99.90;;;;;;5037568;28;20978;-51
2023/09/04 11:20:27;;;;;;;5.63;2.20;;;25.60;99.90;;;;;;5046279;28;20477;-50
2023/09/04 11:22:56;;;;;;;3.37;2.67;;;25.90;99.90;;;;;;5049740;28;20503;-52
2023/09/04 11:25:23;;;;;;;5.70;2.93;;;26.10;99.90;;;;;;5051087;28;20850;-51
2023/09/04 11:27:50;;;;;;;5.50;2.57;;;25.30;99.90;;;;;;5046422;28;20461;-52
2023/09/04 11:30:17;;;;;;;2.60;2.30;;;25.40;99.90;;;;;;5045936;28;20454;-53
2023/09/04 11:32:45;;;;;;;6.23;2.63;;;25.00;99.90;;;;;;5051112;28;21139;-52
2023/09/04 11:35:14;;;;;;;2.67;2.20;;;25.00;99.90;;;;;;5051470;28;20878;-51
2023/09/04 11:37:44;;;;;;;3.03;2.63;;;24.80;99.90;;;;;;5047340;28;20834;-52
2023/09/04 11:40:11;;;;;;;10.67;2.67;;;24.30;99.90;;;;;;5044977;28;20488;-53
2023/09/04 11:42:38;;;;;;;4.40;2.20;;;24.30;99.90;;;;;;5047445;28;20529;-54
2023/09/04 11:45:06;;;;;;;6.03;2.10;;;24.30;99.90;;;;;;5049151;28;20924;-52
2023/09/04 11:47:34;;;;;;;2.50;2.20;;;24.50;99.90;;;;;;5047273;28;20489;-53
2023/09/04 11:50:01;;;;;;;22.77;3.07;;;24.40;99.90;;;;;;5052205;28;20461;-53
2023/09/04 11:52:29;;;;;;;4.07;2.17;;;24.20;99.90;;;;;;5049459;28;20458;-53
2023/09/04 11:54:56;;;;;;;9.30;3.10;;;24.60;99.90;;;;;;5046949;28;20827;-53
2023/09/04 11:57:23;;;;;;;4.50;2.57;;;25.20;99.90;;;;;;5049570;28;20573;-53
2023/09/04 11:59:50;;;;;;;5.30;3.00;;;25.10;99.90;;;;;;5047060;28;20820;-53
2023/09/04 12:02:16;;;;;;;5.20;2.47;;;24.90;99.90;;;;;;5044726;28;20458;-53
2023/09/04 12:04:45;;;;;;;4.90;2.33;;;25.00;99.90;;;;;;5043182;28;20490;-52
2023/09/04 12:07:13;;;;;;;3.03;2.80;;;24.80;99.90;;;;;;5051176;28;20473;-54
2023/09/04 12:09:41;;;;;;;7.90;2.40;;;24.80;99.90;;;;;;5051976;28;20454;-54
2023/09/04 12:12:08;;;;;;;5.80;2.53;;;25.30;99.90;;;;;;5048108;28;20454;-54
2023/09/04 12:14:35;;;;;;;2.33;2.13;;;25.70;99.90;;;;;;5046741;28;20516;-53
2023/09/04 12:17:03;;;;;;;5.90;2.20;;;26.00;99.90;;;;;;5047334;28;20513;-54
2023/09/04 12:19:32;;;;;;;3.47;2.63;;;26.10;99.90;;;;;;5050675;28;20454;-53
2023/09/04 12:22:12;;;;;;;2.63;2.43;;;25.90;99.90;;;;;;5046272;28;20480;-53
2023/09/04 12:24:39;;;;;;;5.80;2.30;;;25.80;99.90;;;;;;5047264;28;20457;-54
2023/09/04 12:27:06;;;;;;;2.70;2.37;;;25.80;99.90;;;;;;5045843;28;20481;-53
2023/09/04 12:29:35;;;;;;;3.00;1.93;;;25.80;99.90;;;;;;5044157;28;20462;-53
2023/09/04 12:32:03;;;;;;;4.30;1.90;;;25.70;99.90;;;;;;5050183;28;20823;-53
2023/09/04 12:34:31;;;;;;;2.93;1.97;;;26.10;99.90;;;;;;5045751;28;20464;-53
2023/09/04 12:36:57;;;;;;;6.07;2.20;;;26.80;99.90;;;;;;5046412;28;20485;-53
2023/09/04 12:39:25;;;;;;;2.63;2.43;;;27.20;99.90;;;;;;5052482;28;20932;-53
2023/09/04 12:41:56;;;;;;;6.77;1.80;;;27.40;99.90;;;;;;5043364;28;21010;-53
2023/09/04 12:44:22;;;;;;;4.60;1.80;;;27.40;99.90;;;;;;5050060;28;20458;-52
2023/09/04 12:46:49;;;;;;;6.80;1.90;;;27.60;99.90;;;;;;5048924;28;20485;-54
2023/09/04 12:49:15;;;;;;;2.23;2.00;;;27.80;99.90;;;;;;5052187;28;20500;-53